Ahsahka, Idaho
Current Conditions -  °F | °C
As of 9:56 AM on Friday 21 Nov 2014 (Local Time) from KLWS Reporting Station
Overcast Overcast  
Wind Chill: 37°   Ceiling: 8500
Heat Index: 40°   Visibility: 10mi
Dew Point: 35°   Wind: 5mph
Humidity: 83%   Direction: 110°ESE
Pressure: 29.93"   Gusts: NA
Location:  46.51°N, 116.35°W
Report Text: KLWS 211756Z 11004KT 10SM SCT060 OVC085 04/02 A2993 RMK AO2 SLP143 T00440017 10044 20006 58011
Loading
Personal Weather Stations






























Interactive Weather Map New forecast layout! Learn more

10-Day Weather Forecast

Advertisements
Track Severe Weather on mobile